Alger, Ohio
Current Conditions -  °F | °C
As of 4:53 PM on Wednesday 26 Nov 2014 (Local Time) from KAOH Reporting Station
Overcast Overcast  
Wind Chill: 27°   Ceiling: 2200
Heat Index: 32°   Visibility: 10mi
Dew Point: 24°   Wind: 5mph
Humidity: 73%   Direction: 280°W
Pressure: 30.06"   Gusts: NA
Location:  40.71°N, 83.84°W
Report Text: KAOH 262153Z AUTO 28004KT 10SM OVC022 00/M04 A3006 RMK AO2 SLP190 T00001044
Loading
Personal Weather Stations






























Interactive Weather Map New forecast layout! Learn more

10-Day Weather Forecast

Advertisements
Track Severe Weather on mobile